createdAt,value
2022-07-28T00:01:32.718Z,100363.09
2022-07-28T00:03:57.151Z,100352.34
2022-07-28T00:06:20.245Z,100354.50
2022-07-28T00:08:43.255Z,100354.66
2022-07-28T00:11:06.358Z,100357.41
2022-07-28T00:13:29.346Z,100363.72
2022-07-28T00:15:52.392Z,100367.66
2022-07-28T00:18:15.436Z,100363.25
2022-07-28T00:20:39.977Z,100354.84
2022-07-28T00:23:03.054Z,100367.00
2022-07-28T00:25:26.068Z,100376.06
2022-07-28T00:27:49.429Z,100375.34
2022-07-28T00:30:12.974Z,100375.31
2022-07-28T00:32:36.687Z,100375.78
2022-07-28T00:35:00.049Z,100370.66
2022-07-28T00:37:24.538Z,100364.19
2022-07-28T00:39:49.350Z,100373.19
2022-07-28T00:42:12.479Z,100367.78
2022-07-28T00:44:35.614Z,100378.28
2022-07-28T00:46:58.651Z,100365.72
2022-07-28T00:49:23.007Z,100372.88
2022-07-28T00:51:46.121Z,100379.63
2022-07-28T00:54:11.000Z,100388.53
2022-07-28T00:56:34.270Z,100377.22
2022-07-28T00:58:57.319Z,100370.50
2022-07-28T01:01:21.297Z,100383.91
2022-07-28T01:03:45.524Z,100387.81
2022-07-28T01:06:11.260Z,100390.66
2022-07-28T01:08:35.618Z,100390.81
2022-07-28T01:11:02.485Z,100388.88
2022-07-28T01:13:30.074Z,100395.75
2022-07-28T01:15:56.694Z,100398.25
2022-07-28T01:18:20.114Z,100399.88
2022-07-28T01:20:43.422Z,100399.34
2022-07-28T01:23:09.295Z,100395.19
2022-07-28T01:25:35.285Z,100390.19
2022-07-28T01:28:02.496Z,100393.03
2022-07-28T01:30:29.251Z,100394.97
2022-07-28T01:32:54.524Z,100383.94
2022-07-28T01:35:17.928Z,100384.75
2022-07-28T01:37:41.837Z,100388.78
2022-07-28T01:40:05.893Z,100386.25
2022-07-28T01:42:29.718Z,100394.06
2022-07-28T01:44:52.723Z,100386.13
2022-07-28T01:47:17.129Z,100398.81
2022-07-28T01:49:40.173Z,100400.09
2022-07-28T01:52:03.550Z,100401.88
2022-07-28T01:54:28.549Z,100404.50
2022-07-28T01:56:52.210Z,100397.56
2022-07-28T01:59:15.251Z,100412.97
2022-07-28T02:01:38.819Z,100410.34
2022-07-28T02:04:03.401Z,100410.81
2022-07-28T02:06:28.577Z,100401.47
2022-07-28T02:08:51.652Z,100416.50
2022-07-28T02:11:43.540Z,100415.53
2022-07-28T02:14:06.874Z,100405.69
2022-07-28T02:16:30.430Z,100412.72
2022-07-28T02:18:53.452Z,100425.22
2022-07-28T02:21:17.945Z,100424.22
2022-07-28T02:23:40.982Z,100426.25
2022-07-28T02:26:04.745Z,100426.75
2022-07-28T02:28:27.881Z,100434.31
2022-07-28T02:30:51.873Z,100431.63
2022-07-28T02:33:16.102Z,100441.63
2022-07-28T02:35:54.117Z,100451.47
2022-07-28T02:38:22.676Z,100453.91
2022-07-28T02:40:45.793Z,100465.81
2022-07-28T02:43:09.593Z,100465.53
2022-07-28T02:45:32.793Z,100464.34
2022-07-28T02:47:57.286Z,100463.38
2022-07-28T02:50:21.547Z,100469.28
2022-07-28T02:52:44.598Z,100463.84
2022-07-28T02:55:09.550Z,100461.75
2022-07-28T02:57:32.551Z,100464.69
2022-07-28T02:59:55.632Z,100469.13
2022-07-28T03:02:19.875Z,100461.03
2022-07-28T03:04:59.059Z,100462.16
2022-07-28T03:07:22.507Z,100466.97
2022-07-28T03:09:47.107Z,100468.78
2022-07-28T03:12:11.557Z,100465.88
2022-07-28T03:14:34.603Z,100464.53
2022-07-28T03:16:57.753Z,100469.44
2022-07-28T03:19:20.802Z,100469.81
2022-07-28T03:21:43.871Z,100472.56
2022-07-28T03:24:07.210Z,100468.22
2022-07-28T03:26:31.893Z,100473.38
2022-07-28T03:28:56.390Z,100484.75
2022-07-28T03:31:19.489Z,100483.28
2022-07-28T03:33:42.635Z,100477.69
2022-07-28T03:36:06.986Z,100484.25
2022-07-28T03:38:30.939Z,100485.72
2022-07-28T03:40:54.950Z,100480.03
2022-07-28T03:43:18.138Z,100480.53
2022-07-28T03:45:42.712Z,100478.28
2022-07-28T03:48:10.079Z,100477.94
2022-07-28T03:50:33.506Z,100479.66
2022-07-28T03:52:56.563Z,100486.41
2022-07-28T03:55:19.701Z,100482.50
2022-07-28T03:57:42.750Z,100486.91
2022-07-28T04:00:09.516Z,100493.47
2022-07-28T04:02:37.321Z,100493.00
2022-07-28T04:05:00.354Z,100486.38
2022-07-28T04:07:23.378Z,100489.13
2022-07-28T04:09:46.427Z,100493.72
2022-07-28T04:12:09.796Z,100496.69
2022-07-28T04:14:32.794Z,100505.16
2022-07-28T04:16:55.939Z,100495.63
2022-07-28T04:19:20.461Z,100496.19
2022-07-28T04:21:43.751Z,100493.44
2022-07-28T04:24:07.493Z,100498.97
2022-07-28T04:26:30.505Z,100500.78
2022-07-28T04:28:53.584Z,100501.34
2022-07-28T04:31:16.656Z,100502.75
2022-07-28T04:33:40.108Z,100505.19
2022-07-28T04:36:04.606Z,100507.50
2022-07-28T04:38:27.626Z,100511.84
2022-07-28T04:40:50.696Z,100507.88
2022-07-28T04:43:13.787Z,100516.88
2022-07-28T04:45:37.011Z,100521.44
2022-07-28T04:48:00.219Z,100516.34
2022-07-28T04:50:23.233Z,100514.31
2022-07-28T04:52:55.647Z,100514.16
2022-07-28T04:55:18.842Z,100527.06
2022-07-28T04:57:41.870Z,100526.38
2022-07-28T05:00:11.744Z,100530.38
2022-07-28T05:02:35.717Z,100533.38
2022-07-28T05:04:58.796Z,100535.09
2022-07-28T05:07:21.908Z,100538.63
2022-07-28T05:09:46.252Z,100541.22
2022-07-28T05:12:09.784Z,100532.75
2022-07-28T05:14:32.793Z,100526.13
2022-07-28T05:16:55.842Z,100531.53
2022-07-28T05:19:19.102Z,100536.97
2022-07-28T05:21:42.102Z,100537.13
2022-07-28T05:24:05.343Z,100538.16
2022-07-28T05:26:31.091Z,100539.69
2022-07-28T05:28:54.147Z,100550.50
2022-07-28T05:31:17.189Z,100543.38
2022-07-28T05:33:40.274Z,100544.41
2022-07-28T05:36:04.417Z,100543.59
2022-07-28T05:38:27.410Z,100549.00
2022-07-28T05:40:50.476Z,100552.34
2022-07-28T05:43:14.967Z,100551.50
2022-07-28T05:45:38.119Z,100552.19
2022-07-28T05:48:01.368Z,100551.63
2022-07-28T05:50:25.315Z,100555.03
2022-07-28T05:52:48.486Z,100566.22
2022-07-28T05:55:12.198Z,100558.63
2022-07-28T05:57:35.258Z,100568.25
2022-07-28T05:59:59.729Z,100572.47
2022-07-28T06:02:22.835Z,100568.38
2022-07-28T06:04:45.926Z,100567.53
2022-07-28T06:07:09.035Z,100574.66
2022-07-28T06:09:32.037Z,100578.22
2022-07-28T06:11:55.137Z,100575.88
2022-07-28T06:14:18.788Z,100584.00
2022-07-28T06:16:43.656Z,100584.00
2022-07-28T06:19:06.734Z,100581.28
2022-07-28T06:21:29.992Z,100584.16
2022-07-28T06:23:53.102Z,100583.81
2022-07-28T06:26:16.442Z,100593.81
2022-07-28T06:28:39.471Z,100590.94
2022-07-28T06:31:02.607Z,100594.63
2022-07-28T06:33:27.047Z,100594.00
2022-07-28T06:35:50.085Z,100601.56
2022-07-28T06:38:16.478Z,100595.31
2022-07-28T06:40:39.544Z,100593.44
2022-07-28T06:43:02.968Z,100602.41
2022-07-28T06:45:26.255Z,100603.09
2022-07-28T06:47:49.430Z,100605.13
2022-07-28T06:50:25.780Z,100611.22
2022-07-28T06:52:50.117Z,100613.44
2022-07-28T06:55:16.166Z,100607.19
2022-07-28T06:57:39.250Z,100609.00
2022-07-28T07:00:02.784Z,100615.25
2022-07-28T07:02:28.238Z,100625.38
2022-07-28T07:04:51.709Z,100614.69
2022-07-28T07:07:16.920Z,100618.66
2022-07-28T07:09:40.490Z,100624.22
2022-07-28T07:12:03.470Z,100629.16
2022-07-28T07:14:26.564Z,100622.72
2022-07-28T07:16:49.652Z,100625.75
2022-07-28T07:19:15.899Z,100629.63
2022-07-28T07:21:39.096Z,100623.81
2022-07-28T07:24:03.947Z,100631.84
2022-07-28T07:26:26.988Z,100633.19
2022-07-28T07:28:50.060Z,100625.91
2022-07-28T07:31:13.108Z,100630.69
2022-07-28T07:33:36.158Z,100636.03
2022-07-28T07:35:59.276Z,100639.78
2022-07-28T07:38:25.053Z,100645.00
2022-07-28T07:40:53.365Z,100645.00
2022-07-28T07:43:16.396Z,100642.63
2022-07-28T07:45:41.331Z,100642.25
2022-07-28T07:48:04.306Z,100653.63
2022-07-28T07:50:27.459Z,100644.16
2022-07-28T07:52:50.673Z,100647.91
2022-07-28T07:55:13.699Z,100665.22
2022-07-28T07:57:38.332Z,100658.94
2022-07-28T08:00:01.436Z,100649.44
2022-07-28T08:02:27.338Z,100659.25
2022-07-28T08:04:50.461Z,100657.22
2022-07-28T08:07:13.631Z,100649.44
2022-07-28T08:09:37.462Z,100651.66
2022-07-28T08:12:00.549Z,100650.81
2022-07-28T08:14:25.261Z,100652.16
2022-07-28T08:16:48.376Z,100651.81
2022-07-28T08:19:11.741Z,100646.03
2022-07-28T08:21:34.962Z,100659.56
2022-07-28T08:23:58.477Z,100655.13
2022-07-28T08:26:21.556Z,100652.63
2022-07-28T08:28:44.608Z,100644.97
2022-07-28T08:31:09.073Z,100653.94
2022-07-28T08:33:32.074Z,100650.56
2022-07-28T08:35:55.092Z,100647.50
2022-07-28T08:38:18.111Z,100647.31
2022-07-28T08:40:41.118Z,100657.84
2022-07-28T08:43:05.003Z,100658.53
2022-07-28T08:45:28.237Z,100650.38
2022-07-28T08:48:08.357Z,100666.47
2022-07-28T08:50:32.438Z,100663.47
2022-07-28T08:52:55.491Z,100666.34
2022-07-28T08:55:19.757Z,100667.84
2022-07-28T08:57:43.005Z,100660.75
2022-07-28T09:00:06.849Z,100669.06
2022-07-28T09:02:29.968Z,100668.69
2022-07-28T09:04:54.416Z,100664.78
2022-07-28T09:07:17.477Z,100668.81
2022-07-28T09:09:40.648Z,100664.44
2022-07-28T09:12:05.479Z,100678.47
2022-07-28T09:14:28.485Z,100678.81
2022-07-28T09:16:51.589Z,100671.72
2022-07-28T09:19:14.596Z,100680.69
2022-07-28T09:21:39.001Z,100678.28
2022-07-28T09:24:01.956Z,100679.88
2022-07-28T09:26:25.032Z,100670.22
2022-07-28T09:28:48.729Z,100673.75
2022-07-28T09:31:12.771Z,100675.09
2022-07-28T09:33:42.028Z,100672.00
2022-07-28T09:36:07.606Z,100674.59
2022-07-28T09:38:31.957Z,100667.69
2022-07-28T09:40:59.329Z,100679.19
2022-07-28T09:43:31.810Z,100681.53
2022-07-28T09:45:58.146Z,100683.56
2022-07-28T09:48:21.290Z,100682.72
2022-07-28T09:50:44.504Z,100683.56
2022-07-28T09:53:23.502Z,100680.50
2022-07-28T09:55:55.508Z,100678.34
2022-07-28T09:58:18.512Z,100674.78
2022-07-28T10:00:41.950Z,100678.53
2022-07-28T10:03:05.083Z,100681.91
2022-07-28T10:05:39.606Z,100684.13
2022-07-28T10:08:03.213Z,100675.69
2022-07-28T10:10:26.301Z,100686.53
2022-07-28T10:12:50.635Z,100679.38
2022-07-28T10:15:34.561Z,100681.41
2022-07-28T10:17:57.717Z,100677.84
2022-07-28T10:20:21.651Z,100680.94
2022-07-28T10:22:44.717Z,100689.19
2022-07-28T10:25:09.744Z,100680.03
2022-07-28T10:27:32.800Z,100679.91
2022-07-28T10:29:58.131Z,100685.81
2022-07-28T10:32:21.458Z,100674.97
2022-07-28T10:34:45.582Z,100680.56
2022-07-28T10:37:09.742Z,100680.88
2022-07-28T10:39:34.014Z,100690.72
2022-07-28T10:41:56.991Z,100682.25
2022-07-28T10:44:20.429Z,100686.00
2022-07-28T10:46:44.985Z,100684.66
2022-07-28T10:49:09.066Z,100686.69
2022-07-28T10:51:33.439Z,100689.06
2022-07-28T10:53:58.326Z,100689.06
2022-07-28T10:56:22.982Z,100689.53
2022-07-28T10:58:47.616Z,100691.56
2022-07-28T11:01:17.147Z,100689.53
2022-07-28T11:03:51.480Z,100685.63
2022-07-28T11:06:27.095Z,100680.22
2022-07-28T11:08:50.235Z,100686.66
2022-07-28T11:11:13.214Z,100687.50
2022-07-28T11:13:37.084Z,100683.97
2022-07-28T11:16:19.863Z,100680.88
2022-07-28T11:18:57.818Z,100684.09
2022-07-28T11:21:25.240Z,100682.56
2022-07-28T11:23:57.006Z,100696.13
2022-07-28T11:26:47.201Z,100693.41
2022-07-28T11:29:22.623Z,100692.38
2022-07-28T11:31:58.342Z,100688.84
2022-07-28T11:34:21.846Z,100683.75
2022-07-28T11:37:05.019Z,100690.88
2022-07-28T11:39:28.422Z,100693.94
2022-07-28T11:41:51.803Z,100698.88
2022-07-28T11:44:24.525Z,100684.66
2022-07-28T11:46:47.737Z,100688.94
2022-07-28T11:49:19.751Z,100693.31
2022-07-28T11:51:52.517Z,100701.63
2022-07-28T11:54:18.407Z,100693.03
2022-07-28T11:56:41.406Z,100683.03
2022-07-28T11:59:04.957Z,100688.56
2022-07-28T12:01:31.880Z,100689.41
2022-07-28T12:03:56.807Z,100696.38
2022-07-28T12:06:28.651Z,100691.81
2022-07-28T12:08:52.774Z,100688.25
2022-07-28T12:11:17.224Z,100690.44
2022-07-28T12:13:40.238Z,100690.78
2022-07-28T12:16:03.302Z,100695.38
2022-07-28T12:18:26.307Z,100694.34
2022-07-28T12:20:52.858Z,100692.97
2022-07-28T12:23:15.914Z,100690.72
2022-07-28T12:25:42.631Z,100691.41
2022-07-28T12:28:15.526Z,100693.09
2022-07-28T12:30:38.648Z,100693.41
2022-07-28T12:33:02.615Z,100686.47
2022-07-28T12:35:25.715Z,100694.25
2022-07-28T12:37:49.321Z,100687.44
2022-07-28T12:40:14.254Z,100690.84
2022-07-28T12:42:37.252Z,100690.50
2022-07-28T12:45:03.527Z,100686.66
2022-07-28T12:47:27.612Z,100686.66
2022-07-28T12:49:57.818Z,100684.97
2022-07-28T12:52:22.824Z,100688.84
2022-07-28T12:54:54.165Z,100689.38
2022-07-28T12:57:18.394Z,100685.44
2022-07-28T12:59:41.366Z,100679.38
2022-07-28T13:02:07.941Z,100687.66
2022-07-28T13:04:45.598Z,100696.34
2022-07-28T13:07:10.788Z,100682.31
2022-07-28T13:09:35.181Z,100680.44
2022-07-28T13:11:58.465Z,100679.25
2022-07-28T13:14:36.391Z,100668.22
2022-07-28T13:16:59.529Z,100677.50
2022-07-28T13:19:24.201Z,100667.81
2022-07-28T13:21:58.271Z,100666.44
2022-07-28T13:24:21.947Z,100664.56
2022-07-28T13:26:45.570Z,100666.59
2022-07-28T13:29:12.947Z,100663.88
2022-07-28T13:31:36.705Z,100661.16
2022-07-28T13:33:59.939Z,100662.88
2022-07-28T13:36:24.318Z,100670.81
2022-07-28T13:38:47.283Z,100674.56
2022-07-28T13:41:10.368Z,100668.66
2022-07-28T13:43:35.699Z,100667.28
2022-07-28T13:46:00.138Z,100666.22
2022-07-28T13:48:23.383Z,100669.78
2022-07-28T13:50:49.536Z,100663.88
2022-07-28T13:53:31.255Z,100673.88
2022-07-28T13:55:55.725Z,100667.31
2022-07-28T13:58:18.779Z,100672.72
2022-07-28T14:00:46.283Z,100666.81
2022-07-28T14:03:09.772Z,100667.84
2022-07-28T14:05:34.584Z,100660.56
2022-07-28T14:07:57.791Z,100657.34
2022-07-28T14:10:26.568Z,100664.25
2022-07-28T14:12:52.018Z,100665.47
2022-07-28T14:15:15.079Z,100662.75
2022-07-28T14:17:44.952Z,100649.69
2022-07-28T14:20:09.332Z,100662.88
2022-07-28T14:22:32.321Z,100659.28
2022-07-28T14:24:55.445Z,100657.47
2022-07-28T14:27:18.472Z,100663.41
2022-07-28T14:29:43.378Z,100650.38
2022-07-28T14:32:06.758Z,100648.16
2022-07-28T14:34:29.757Z,100655.75
2022-07-28T14:36:53.468Z,100646.28
2022-07-28T14:39:16.476Z,100652.03
2022-07-28T14:41:39.549Z,100643.91
2022-07-28T14:44:02.737Z,100644.53
2022-07-28T14:46:29.596Z,100641.84
2022-07-28T14:48:53.143Z,100645.56
2022-07-28T14:51:16.496Z,100645.56
2022-07-28T14:53:39.973Z,100649.13
2022-07-28T14:56:06.845Z,100649.84
2022-07-28T14:58:34.348Z,100646.78
2022-07-28T15:00:57.369Z,100652.03
2022-07-28T15:03:21.926Z,100645.56
2022-07-28T15:05:47.036Z,100648.28
2022-07-28T15:08:10.151Z,100654.06
2022-07-28T15:10:33.171Z,100654.44
2022-07-28T15:12:56.756Z,100644.97
2022-07-28T15:15:21.245Z,100648.31
2022-07-28T15:17:44.357Z,100651.91
2022-07-28T15:20:10.592Z,100665.28
2022-07-28T15:22:33.651Z,100659.00
2022-07-28T15:24:56.681Z,100662.19
2022-07-28T15:27:19.749Z,100661.16
2022-07-28T15:29:43.463Z,100674.09
2022-07-28T15:32:07.184Z,100664.59
2022-07-28T15:34:33.803Z,100676.97
2022-07-28T15:36:58.224Z,100674.91
2022-07-28T15:39:23.146Z,100678.47
2022-07-28T15:41:46.540Z,100675.41
2022-07-28T15:44:09.617Z,100684.09
2022-07-28T15:46:33.454Z,100682.03
2022-07-28T15:48:56.568Z,100686.81
2022-07-28T15:51:22.675Z,100688.47
2022-07-28T15:53:56.165Z,100690.88
2022-07-28T15:56:19.302Z,100683.09
2022-07-28T15:58:42.488Z,100682.38
2022-07-28T16:01:05.596Z,100684.59
2022-07-28T16:03:28.713Z,100687.16
2022-07-28T16:05:51.843Z,100680.03
2022-07-28T16:08:14.825Z,100688.16
2022-07-28T16:10:39.551Z,100691.22
2022-07-28T16:13:02.575Z,100698.34
2022-07-28T16:15:27.091Z,100699.00
2022-07-28T16:17:50.134Z,100704.25
2022-07-28T16:20:13.335Z,100705.47
2022-07-28T16:22:37.657Z,100702.25
2022-07-28T16:25:00.664Z,100707.00
2022-07-28T16:27:25.038Z,100708.16
2022-07-28T16:29:49.548Z,100713.41
2022-07-28T16:32:12.863Z,100699.84
2022-07-28T16:34:36.059Z,100714.06
2022-07-28T16:36:59.064Z,100713.22
2022-07-28T16:39:22.170Z,100716.44
2022-07-28T16:41:47.529Z,100727.09
2022-07-28T16:44:14.672Z,100729.16
2022-07-28T16:46:41.433Z,100725.91
2022-07-28T16:49:04.604Z,100723.53
2022-07-28T16:51:27.823Z,100721.53
2022-07-28T16:53:50.842Z,100718.88
2022-07-28T16:56:17.436Z,100714.34
2022-07-28T16:58:40.762Z,100712.22
2022-07-28T17:01:05.446Z,100716.72
2022-07-28T17:03:28.585Z,100714.88
2022-07-28T17:05:53.266Z,100734.91
2022-07-28T17:08:16.298Z,100726.09
2022-07-28T17:10:39.370Z,100729.34
2022-07-28T17:13:03.127Z,100732.22
2022-07-28T17:15:26.142Z,100723.63
2022-07-28T17:17:50.592Z,100723.78
2022-07-28T17:20:13.713Z,100722.09
2022-07-28T17:22:36.921Z,100718.06
2022-07-28T17:24:59.996Z,100719.72
2022-07-28T17:27:37.860Z,100717.34
2022-07-28T17:30:01.703Z,100716.00
2022-07-28T17:32:24.723Z,100715.53
2022-07-28T17:34:49.199Z,100717.56
2022-07-28T17:37:12.288Z,100722.81
2022-07-28T17:39:35.398Z,100716.56
2022-07-28T17:41:58.407Z,100728.25
2022-07-28T17:44:21.629Z,100727.03
2022-07-28T17:46:45.516Z,100725.34
2022-07-28T17:49:09.070Z,100728.38
2022-07-28T17:51:33.535Z,100732.44
2022-07-28T17:53:56.588Z,100736.66
2022-07-28T17:56:19.870Z,100740.56
2022-07-28T17:58:44.113Z,100740.88
2022-07-28T18:01:12.146Z,100746.31
2022-07-28T18:03:59.264Z,100752.03
2022-07-28T18:06:18.665Z,100751.72
2022-07-28T18:08:44.274Z,100756.75
2022-07-28T18:11:07.652Z,100754.19
2022-07-28T18:13:30.733Z,100750.63
2022-07-28T18:15:53.870Z,100756.75
2022-07-28T18:18:16.891Z,100755.22
2022-07-28T18:20:40.012Z,100756.66
2022-07-28T18:23:03.025Z,100764.72
2022-07-28T18:25:27.818Z,100757.44
2022-07-28T18:27:50.846Z,100763.84
2022-07-28T18:30:14.542Z,100757.59
2022-07-28T18:32:37.567Z,100759.31
2022-07-28T18:35:00.568Z,100746.25
2022-07-28T18:37:23.663Z,100748.78
2022-07-28T18:39:46.810Z,100751.19
2022-07-28T18:42:11.885Z,100750.75
2022-07-28T18:44:34.897Z,100749.59
2022-07-28T18:46:59.643Z,100745.88
2022-07-28T18:49:22.763Z,100746.91
2022-07-28T18:51:46.058Z,100747.41
2022-07-28T18:54:09.131Z,100747.22
2022-07-28T18:56:32.561Z,100752.81
2022-07-28T18:58:57.252Z,100756.34
2022-07-28T19:01:20.294Z,100752.47
2022-07-28T19:03:43.471Z,100749.94
2022-07-28T19:06:06.526Z,100753.66
2022-07-28T19:08:29.704Z,100748.06
2022-07-28T19:10:52.741Z,100747.22
2022-07-28T19:13:15.844Z,100755.34
2022-07-28T19:15:40.263Z,100751.13
2022-07-28T19:18:10.366Z,100751.63
2022-07-28T19:20:34.638Z,100745.22
2022-07-28T19:23:00.745Z,100743.19
2022-07-28T19:25:26.433Z,100745.56
2022-07-28T19:27:49.423Z,100737.75
2022-07-28T19:30:12.810Z,100733.88
2022-07-28T19:32:38.506Z,100739.28
2022-07-28T19:35:01.580Z,100731.16
2022-07-28T19:37:24.609Z,100733.00
2022-07-28T19:39:47.732Z,100743.00
2022-07-28T19:42:10.771Z,100744.34
2022-07-28T19:44:33.786Z,100750.25
2022-07-28T19:46:57.785Z,100746.19
2022-07-28T19:49:22.294Z,100743.16
2022-07-28T19:51:45.416Z,100742.84
2022-07-28T19:54:08.475Z,100743.34
2022-07-28T19:56:31.852Z,100747.75
2022-07-28T19:58:55.179Z,100750.63
2022-07-28T20:01:19.327Z,100752.00
2022-07-28T20:04:04.106Z,100754.19
2022-07-28T20:06:26.933Z,100747.69
2022-07-28T20:08:50.372Z,100748.00
2022-07-28T20:11:14.648Z,100758.53
2022-07-28T20:13:38.354Z,100761.34
2022-07-28T20:16:01.397Z,100757.50
2022-07-28T20:18:24.485Z,100765.97
2022-07-28T20:20:47.635Z,100752.47
2022-07-28T20:23:12.060Z,100749.75
2022-07-28T20:25:35.032Z,100745.31
2022-07-28T20:27:58.186Z,100742.28
2022-07-28T20:30:21.337Z,100743.25
2022-07-28T20:32:45.290Z,100740.78
2022-07-28T20:35:08.629Z,100732.03
2022-07-28T20:37:36.915Z,100734.06
2022-07-28T20:40:02.111Z,100734.34
2022-07-28T20:42:26.301Z,100732.16
2022-07-28T20:44:49.429Z,100740.63
2022-07-28T20:47:12.457Z,100744.34
2022-07-28T20:49:35.571Z,100746.06
2022-07-28T20:51:58.692Z,100744.50
2022-07-28T20:54:22.296Z,100744.66
2022-07-28T20:56:46.727Z,100743.16
2022-07-28T20:59:09.811Z,100740.31
2022-07-28T21:01:32.948Z,100737.63
2022-07-28T21:03:56.051Z,100735.06
2022-07-28T21:06:19.187Z,100728.97
2022-07-28T21:08:43.458Z,100736.88
2022-07-28T21:11:06.584Z,100736.38
2022-07-28T21:13:30.960Z,100729.94
2022-07-28T21:15:54.000Z,100731.97
2022-07-28T21:18:18.072Z,100727.41
2022-07-28T21:20:41.939Z,100729.63
2022-07-28T21:23:05.058Z,100734.41
2022-07-28T21:25:28.054Z,100743.69
2022-07-28T21:28:08.369Z,100743.16
2022-07-28T21:30:32.969Z,100738.25
2022-07-28T21:32:56.065Z,100750.13
2022-07-28T21:35:19.190Z,100749.94
2022-07-28T21:37:42.229Z,100746.03
2022-07-28T21:40:05.681Z,100752.63
2022-07-28T21:42:28.658Z,100751.78
2022-07-28T21:44:51.650Z,100755.19
2022-07-28T21:47:16.133Z,100743.31
2022-07-28T21:49:39.136Z,100743.31
2022-07-28T21:52:02.137Z,100749.25
2022-07-28T21:54:25.157Z,100751.59
2022-07-28T21:56:48.549Z,100757.34
2022-07-28T21:59:11.767Z,100753.63
2022-07-28T22:01:34.898Z,100753.31
2022-07-28T22:03:59.374Z,100754.63
2022-07-28T22:06:22.394Z,100752.44
2022-07-28T22:08:45.423Z,100758.88
2022-07-28T22:11:08.506Z,100757.19
2022-07-28T22:13:31.518Z,100753.59
2022-07-28T22:15:54.597Z,100757.00
2022-07-28T22:18:17.738Z,100759.34
2022-07-28T22:20:42.230Z,100754.44
2022-07-28T22:23:11.642Z,100757.00
2022-07-28T22:25:48.446Z,100751.78
2022-07-28T22:28:13.943Z,100753.28
2022-07-28T22:30:39.289Z,100755.31
2022-07-28T22:33:02.555Z,100748.22
2022-07-28T22:35:25.550Z,100748.22
2022-07-28T22:37:50.877Z,100746.84
2022-07-28T22:40:13.930Z,100749.25
2022-07-28T22:42:37.130Z,100750.63
2022-07-28T22:45:00.465Z,100743.19
2022-07-28T22:47:23.496Z,100748.41
2022-07-28T22:49:46.623Z,100752.63
2022-07-28T22:52:09.645Z,100742.47
2022-07-28T22:54:34.142Z,100747.53
2022-07-28T22:56:57.241Z,100749.91
2022-07-28T22:59:20.415Z,100738.94
2022-07-28T23:01:44.541Z,100735.03
2022-07-28T23:04:07.729Z,100735.38
2022-07-28T23:06:30.847Z,100743.69
2022-07-28T23:08:53.909Z,100743.00
2022-07-28T23:11:18.361Z,100740.81
2022-07-28T23:13:41.869Z,100752.59
2022-07-28T23:16:05.239Z,100745.81
2022-07-28T23:18:28.456Z,100745.69
2022-07-28T23:20:51.591Z,100743.47
2022-07-28T23:23:18.359Z,100740.44
2022-07-28T23:25:42.984Z,100738.91
2022-07-28T23:28:07.792Z,100745.16
2022-07-28T23:30:30.907Z,100745.31
2022-07-28T23:32:54.023Z,100751.16
2022-07-28T23:35:17.232Z,100743.88
2022-07-28T23:37:40.285Z,100740.78
2022-07-28T23:40:03.367Z,100746.34
2022-07-28T23:42:26.542Z,100754.81
2022-07-28T23:44:50.995Z,100743.69
2022-07-28T23:47:14.125Z,100743.53
2022-07-28T23:49:37.332Z,100743.81
2022-07-28T23:52:00.393Z,100750.91
2022-07-28T23:54:23.585Z,100745.00
2022-07-28T23:56:46.716Z,100758.47
2022-07-28T23:59:13.688Z,100755.09
